Time;durP1;ratioP1;P1;durP2;ratioP2;P2;SDS_P1;SDS_P2;PMS_P1;PMS_P2;Temp;Humidity;BMP_temperature;BMP_pressure;BME280_temperature;BME280_humidity;BME280_pressure;Samples;Min_cycle;Max_cycle;Signal;HPM_P1;HPM_P2
2023/02/28 00:03:18;;;;;;;3.22;1.77;;;;;;;3.34;52.98;101490.22;12839068;23;20017;-60
2023/02/28 00:08:20;;;;;;;1.92;1.50;;;;;;;3.26;52.76;101489.00;12839391;23;20044;-60
2023/02/28 00:13:21;;;;;;;3.47;1.75;;;;;;;3.18;52.99;101486.88;12786279;23;20016;-60
2023/02/28 00:18:23;;;;;;;6.18;2.53;;;;;;;3.13;52.90;101487.16;12838736;23;20020;-60
2023/02/28 00:23:25;;;;;;;2.13;1.83;;;;;;;3.12;53.41;101489.88;12839196;23;20536;-60
2023/02/28 00:28:26;;;;;;;2.42;2.20;;;;;;;3.13;53.12;101492.47;12839000;23;20051;-60
2023/02/28 00:33:28;;;;;;;3.90;2.33;;;;;;;3.11;53.69;101485.56;12839310;23;20020;-60
2023/02/28 00:38:29;;;;;;;6.88;2.72;;;;;;;3.11;53.81;101490.88;12815099;23;20353;-60
2023/02/28 00:43:35;;;;;;;4.85;3.25;;;;;;;3.06;53.79;101499.13;12843018;23;20028;-60
2023/02/28 00:48:37;;;;;;;4.45;2.90;;;;;;;3.06;53.60;101490.28;12842046;23;20070;-60
2023/02/28 00:53:38;;;;;;;5.10;2.80;;;;;;;2.94;53.75;101491.94;12843433;23;20031;-60
2023/02/28 00:58:40;;;;;;;4.85;2.78;;;;;;;2.87;54.31;101491.50;12842140;23;20024;-60
2023/02/28 01:03:42;;;;;;;4.75;2.65;;;;;;;2.88;54.18;101503.78;12815035;23;20388;-60
2023/02/28 01:08:43;;;;;;;3.95;2.72;;;;;;;2.78;54.54;101495.59;12842926;23;20551;-60
2023/02/28 01:13:46;;;;;;;4.13;2.83;;;;;;;2.69;55.06;101490.00;12841714;23;20028;-60
2023/02/28 01:18:47;;;;;;;7.45;3.45;;;;;;;2.56;54.96;101487.25;12840729;23;20504;-60
2023/02/28 01:23:49;;;;;;;6.65;2.83;;;;;;;2.48;55.14;101482.44;12843685;23;20020;-60
2023/02/28 01:28:52;;;;;;;6.85;3.22;;;;;;;2.43;55.70;101481.00;12842257;23;20051;-60
2023/02/28 01:33:53;;;;;;;7.85;3.70;;;;;;;2.33;55.49;101481.59;12841475;23;20021;-60
2023/02/28 01:38:55;;;;;;;5.03;3.00;;;;;;;2.23;56.73;101475.13;12842567;23;20020;-60
2023/02/28 01:44:44;;;;;;;6.65;3.50;;;;;;;2.13;56.30;101477.50;12841774;23;20020;-60
2023/02/28 01:49:46;;;;;;;;;;;;;;;2.06;56.53;101473.53;12841516;23;20331;-60
2023/02/28 01:54:54;;;;;;;4.95;2.75;;;;;;;2.02;57.27;101471.16;12840517;23;19927;-60
2023/02/28 02:00:04;;;;;;;3.22;2.60;;;;;;;2.00;56.99;101470.41;12841563;23;20070;-60
2023/02/28 02:05:17;;;;;;;3.17;2.58;;;;;;;1.94;56.74;101461.84;12840585;23;20032;-62
2023/02/28 02:10:24;;;;;;;4.13;2.53;;;;;;;1.92;57.58;101460.25;12838016;23;20997;-62
2023/02/28 02:15:44;;;;;;;7.60;3.07;;;;;;;1.85;57.61;101458.91;12839524;23;20016;-62
2023/02/28 02:21:04;;;;;;;5.32;3.28;;;;;;;1.78;57.84;101453.97;12840151;23;20031;-61
2023/02/28 02:26:27;;;;;;;4.07;2.55;;;;;;;1.75;57.69;101456.78;12839255;23;20441;-62
2023/02/28 02:32:06;;;;;;;3.38;2.60;;;;;;;1.76;57.71;101463.81;12838695;23;20017;-61
2023/02/28 02:37:31;;;;;;;4.45;3.30;;;;;;;1.70;57.04;101455.34;12839358;23;20017;-62
2023/02/28 02:42:38;;;;;;;5.28;3.13;;;;;;;1.65;57.38;101458.28;12812168;23;20020;-62
2023/02/28 02:47:42;;;;;;;5.05;2.80;;;;;;;1.57;57.46;101461.38;12811993;23;20516;-62
2023/02/28 02:52:50;;;;;;;5.85;3.25;;;;;;;1.59;58.31;101453.34;12812230;23;20031;-62
2023/02/28 02:57:58;;;;;;;4.43;3.22;;;;;;;1.56;57.80;101459.69;12838541;23;20024;-63
2023/02/28 03:03:01;;;;;;;5.60;3.17;;;;;;;1.53;57.44;101462.50;12838530;23;20020;-62
2023/02/28 03:08:05;;;;;;;4.90;3.03;;;;;;;1.46;57.86;101457.66;12811740;23;20013;-63
2023/02/28 03:13:37;;;;;;;8.68;3.75;;;;;;;1.36;58.99;101460.88;12811520;23;20017;-63
2023/02/28 03:18:48;;;;;;;6.75;3.53;;;;;;;1.30;58.62;101461.19;12827071;23;20075;-64
2023/02/28 03:24:04;;;;;;;11.55;4.10;;;;;;;1.24;58.38;101458.06;12839733;23;20033;-63
2023/02/28 03:29:23;;;;;;;5.07;3.13;;;;;;;1.21;59.24;101463.56;12786614;23;20025;-62
2023/02/28 03:34:59;;;;;;;7.15;3.80;;;;;;;1.20;58.45;101460.03;12838441;23;20016;-64
2023/02/28 03:40:23;;;;;;;8.63;3.33;;;;;;;1.09;59.37;101462.47;12830916;23;20409;-62
2023/02/28 03:45:28;;;;;;;5.90;3.08;;;;;;;1.10;59.09;101462.34;12838335;23;20020;-63
2023/02/28 03:50:38;;;;;;;8.13;3.95;;;;;;;1.09;59.05;101459.81;12838607;23;20078;-63
2023/02/28 03:55:44;;;;;;;5.38;3.17;;;;;;;1.08;59.92;101460.72;12837796;23;20090;-62
2023/02/28 04:00:52;;;;;;;7.25;3.63;;;;;;;1.06;59.92;101463.47;12837148;23;20020;-63
2023/02/28 04:05:56;;;;;;;7.70;3.30;;;;;;;1.07;59.85;101465.19;12837963;23;20674;-63
2023/02/28 04:11:04;;;;;;;5.47;3.58;;;;;;;1.08;60.43;101471.31;12838339;23;20433;-62
2023/02/28 04:16:11;;;;;;;8.73;4.40;;;;;;;1.08;59.38;101464.22;12843184;23;20379;-62
2023/02/28 04:21:22;;;;;;;5.05;3.40;;;;;;;1.07;59.35;101465.19;12841365;23;20492;-64
2023/02/28 04:26:23;;;;;;;6.20;2.95;;;;;;;1.10;59.55;101466.78;12843238;23;20029;-63
2023/02/28 04:31:24;;;;;;;6.07;2.95;;;;;;;1.07;59.80;101467.84;12840738;23;20024;-63
2023/02/28 04:36:26;;;;;;;5.30;3.22;;;;;;;1.05;59.63;101461.78;12848059;23;20019;-59
2023/02/28 04:41:28;;;;;;;5.18;3.40;;;;;;;1.04;59.43;101459.19;12846705;23;20024;-58
2023/02/28 04:46:33;;;;;;;5.75;2.90;;;;;;;1.09;60.21;101467.75;12849004;23;20017;-61
2023/02/28 04:51:34;;;;;;;5.20;2.78;;;;;;;1.10;60.20;101466.78;12846016;23;20020;-59
2023/02/28 04:56:35;;;;;;;4.78;2.63;;;;;;;1.18;59.31;101461.91;12847807;23;20051;-62
2023/02/28 05:01:37;;;;;;;5.03;2.88;;;;;;;1.32;59.78;101461.13;12846129;23;20027;-59
2023/02/28 05:06:38;;;;;;;6.75;2.88;;;;;;;1.37;60.07;101461.72;12852328;23;20021;-59
2023/02/28 05:11:40;;;;;;;3.67;2.30;;;;;;;1.43;59.46;101464.00;12843277;23;20106;-59
2023/02/28 05:16:42;;;;;;;2.28;1.75;;;;;;;1.49;59.16;101457.50;12844740;23;20028;-58
2023/02/28 05:21:52;;;;;;;5.95;2.17;;;;;;;1.57;59.60;101477.28;12841331;23;20025;-58
2023/02/28 05:26:54;;;;;;;3.95;2.03;;;;;;;1.57;60.17;101477.28;12873411;23;20025;-59
2023/02/28 05:31:55;;;;;;;3.72;2.42;;;;;;;1.62;59.40;101482.34;12870447;23;20078;-58
2023/02/28 05:36:57;;;;;;;5.60;3.00;;;;;;;1.69;59.36;101477.53;12850499;23;20080;-59
2023/02/28 05:41:58;;;;;;;3.70;2.45;;;;;;;1.71;59.59;101481.78;12840798;23;20298;-60
2023/02/28 05:46:59;;;;;;;5.13;2.53;;;;;;;1.76;59.64;101477.06;12857159;23;20032;-61
2023/02/28 05:52:01;;;;;;;4.82;2.33;;;;;;;1.79;59.59;101494.56;12850685;23;20488;-58
2023/02/28 05:57:02;;;;;;;4.30;2.15;;;;;;;1.77;58.74;101489.34;12842774;23;20024;-58
2023/02/28 06:02:15;;;;;;;5.60;2.47;;;;;;;1.74;59.34;101481.59;12842797;23;20454;-59
2023/02/28 06:07:17;;;;;;;4.50;2.03;;;;;;;1.70;59.55;101479.22;12817029;23;20090;-59
2023/02/28 06:12:18;;;;;;;3.63;1.80;;;;;;;1.74;59.40;101486.91;12846762;23;20032;-61
2023/02/28 06:17:20;;;;;;;4.43;2.90;;;;;;;1.79;58.89;101490.13;12844714;23;20055;-60
2023/02/28 06:22:21;;;;;;;4.00;3.15;;;;;;;1.83;58.88;101489.94;12849624;23;20028;-59
2023/02/28 06:27:23;;;;;;;5.95;2.88;;;;;;;1.85;58.75;101493.38;12850169;23;20047;-61
2023/02/28 06:32:24;;;;;;;4.60;2.92;;;;;;;1.80;58.50;101488.34;12884413;23;20030;-64
2023/02/28 06:37:26;;;;;;;4.95;2.42;;;;;;;1.77;58.41;101502.63;12887870;23;20008;-61
2023/02/28 06:42:30;;;;;;;11.00;3.22;;;;;;;1.74;58.90;101512.56;12899680;23;20045;-61
2023/02/28 06:47:32;;;;;;;8.18;2.72;;;;;;;1.72;58.37;101519.75;12899649;23;20032;-62
2023/02/28 06:52:35;;;;;;;3.50;2.55;;;;;;;1.69;59.00;101523.41;12901476;23;20011;-63
2023/02/28 06:57:38;;;;;;;10.35;2.17;;;;;;;1.67;58.52;101522.66;12900658;23;20039;-62
2023/02/28 07:02:39;;;;;;;5.72;2.30;;;;;;;1.73;58.85;101524.94;12911815;23;20024;-63
2023/02/28 07:07:43;;;;;;;4.70;2.42;;;;;;;1.77;59.33;101529.13;12899513;23;20023;-64
2023/02/28 07:12:44;;;;;;;8.63;2.47;;;;;;;1.86;58.73;101534.84;12899306;23;20088;-63
2023/02/28 07:17:46;;;;;;;4.45;2.90;;;;;;;1.91;58.62;101533.59;12898856;23;20008;-63
2023/02/28 07:22:54;;;;;;;4.15;2.58;;;;;;;1.93;58.56;101542.31;12899118;23;20008;-63
2023/02/28 07:27:56;;;;;;;5.70;3.30;;;;;;;2.04;59.05;101532.91;12898467;23;20015;-63
2023/02/28 07:32:58;;;;;;;5.93;2.95;;;;;;;2.05;58.64;101530.13;12900945;23;20207;-62
2023/02/28 07:38:00;;;;;;;5.70;3.38;;;;;;;2.20;58.36;101525.72;12898025;23;20004;-63
2023/02/28 07:43:03;;;;;;;5.60;3.17;;;;;;;2.39;57.92;101528.13;12900016;23;20015;-62
2023/02/28 07:48:04;;;;;;;6.50;3.30;;;;;;;2.51;58.36;101534.47;12898929;23;20035;-63
2023/02/28 07:53:06;;;;;;;7.35;3.72;;;;;;;2.68;58.03;101541.38;12899680;23;20071;-63
2023/02/28 07:58:07;;;;;;;4.20;2.47;;;;;;;2.80;57.87;101545.91;12899379;23;20076;-63
2023/02/28 08:03:12;;;;;;;4.68;2.90;;;;;;;2.97;57.78;101537.75;12899221;23;20020;-64
2023/02/28 08:08:15;;;;;;;9.55;2.95;;;;;;;3.17;57.17;101536.47;12900587;23;20143;-63
2023/02/28 08:13:16;;;;;;;5.05;2.75;;;;;;;3.30;56.75;101535.69;12897879;23;19997;-63
2023/02/28 08:18:18;;;;;;;5.40;3.10;;;;;;;3.38;56.84;101531.56;12898664;23;20235;-63
2023/02/28 08:23:19;;;;;;;4.03;2.67;;;;;;;3.56;56.08;101531.31;12900402;23;20008;-63
2023/02/28 08:28:21;;;;;;;4.97;2.60;;;;;;;3.69;56.03;101534.88;12897314;23;20016;-64
2023/02/28 08:33:23;;;;;;;7.75;2.75;;;;;;;3.83;55.56;101527.75;12898722;23;20056;-63
2023/02/28 08:38:24;;;;;;;3.55;2.50;;;;;;;4.01;54.91;101528.31;12898743;23;20075;-63
2023/02/28 08:43:27;;;;;;;5.82;1.90;;;;;;;4.19;53.95;101529.75;12872511;23;20428;-62
2023/02/28 08:48:31;;;;;;;2.40;1.60;;;;;;;4.24;53.08;101534.75;12864870;23;20044;-65
2023/02/28 08:53:32;;;;;;;3.95;2.13;;;;;;;4.35;52.37;101533.06;12837114;23;20157;-65
2023/02/28 08:58:35;;;;;;;2.40;1.33;;;;;;;4.54;52.04;101539.75;12836623;23;20049;-65
2023/02/28 09:03:36;;;;;;;4.75;2.10;;;;;;;4.67;51.16;101532.59;12839955;23;20079;-66
2023/02/28 09:08:39;;;;;;;4.65;2.15;;;;;;;4.81;50.66;101533.44;12811326;23;20031;-65
2023/02/28 09:13:41;;;;;;;4.15;2.45;;;;;;;4.97;50.30;101521.56;12835272;23;20031;-66
2023/02/28 09:18:43;;;;;;;4.82;2.42;;;;;;;5.11;49.94;101527.72;12838192;23;20246;-65
2023/02/28 09:23:46;;;;;;;4.22;1.83;;;;;;;5.15;49.41;101524.72;12838958;23;20027;-65
2023/02/28 09:28:48;;;;;;;4.10;2.17;;;;;;;5.20;48.44;101520.88;12838156;23;20051;-65
2023/02/28 09:33:53;;;;;;;3.92;2.10;;;;;;;5.18;48.30;101521.00;12837854;23;20039;-64
2023/02/28 09:38:54;;;;;;;3.90;2.13;;;;;;;5.25;47.38;101521.38;12848072;23;20028;-65
2023/02/28 09:43:59;;;;;;;5.28;1.90;;;;;;;5.32;47.59;101512.81;12849508;23;20025;-65
2023/02/28 09:49:06;;;;;;;5.75;2.13;;;;;;;5.40;47.21;101514.06;12820110;23;20025;-65
2023/02/28 09:54:19;;;;;;;6.97;2.35;;;;;;;5.46;46.32;101513.63;12821207;23;20032;-64
2023/02/28 09:59:43;;;;;;;4.75;2.83;;;;;;;5.56;46.48;101525.28;12848032;23;20059;-65
2023/02/28 10:05:08;;;;;;;4.55;2.28;;;;;;;5.59;45.68;101521.53;12820947;23;20078;-66
2023/02/28 10:10:25;;;;;;;6.40;2.78;;;;;;;5.55;45.74;101515.63;12812892;23;20079;-66
2023/02/28 10:15:30;;;;;;;3.10;2.45;;;;;;;5.60;45.21;101517.94;12838159;23;20039;-64
2023/02/28 10:20:35;;;;;;;6.18;2.85;;;;;;;5.66;45.23;101512.97;12839799;23;20028;-65
2023/02/28 10:25:38;;;;;;;3.85;2.50;;;;;;;5.94;44.16;101516.22;12812989;23;20025;-65
2023/02/28 10:30:44;;;;;;;4.05;2.75;;;;;;;6.11;43.96;101523.81;12837479;23;20047;-65
2023/02/28 10:35:46;;;;;;;5.43;2.40;;;;;;;6.26;43.73;101518.25;12840245;23;20030;-65
2023/02/28 10:40:48;;;;;;;4.18;2.50;;;;;;;6.52;43.37;101505.56;12838157;23;20044;-65
2023/02/28 10:45:56;;;;;;;3.22;2.28;;;;;;;6.67;43.02;101517.69;12838800;23;20016;-65
2023/02/28 10:50:59;;;;;;;6.28;2.25;;;;;;;6.74;42.93;101504.69;12838896;23;20083;-65
2023/02/28 10:56:07;;;;;;;4.60;2.72;;;;;;;6.78;42.59;101500.81;12838609;23;20024;-63
2023/02/28 11:01:16;;;;;;;3.70;2.50;;;;;;;6.93;42.00;101502.25;12838619;23;20020;-66
2023/02/28 11:06:21;;;;;;;3.92;2.72;;;;;;;6.97;41.42;101505.53;12839418;23;20028;-66
2023/02/28 11:11:26;;;;;;;6.90;2.95;;;;;;;7.11;41.59;101505.25;12808921;23;20469;-65
2023/02/28 11:16:37;;;;;;;4.95;2.50;;;;;;;7.23;40.73;101491.88;12812301;23;20029;-64
2023/02/28 11:21:40;;;;;;;4.00;2.22;;;;;;;7.32;41.01;101483.91;12837274;23;20031;-65
2023/02/28 11:26:48;;;;;;;7.80;3.20;;;;;;;7.53;40.79;101489.31;12839907;23;20033;-64
2023/02/28 11:32:03;;;;;;;4.78;2.78;;;;;;;7.56;40.56;101490.88;12836943;23;20025;-64
2023/02/28 11:37:11;;;;;;;6.28;2.90;;;;;;;7.54;40.12;101472.28;12844786;23;20013;-61
2023/02/28 11:42:22;;;;;;;7.97;2.70;;;;;;;7.52;39.63;101479.59;12899610;23;20004;-62
2023/02/28 11:47:37;;;;;;;4.70;2.85;;;;;;;7.34;39.71;101476.59;12899935;23;20048;-61
2023/02/28 11:53:15;;;;;;;5.95;3.08;;;;;;;7.41;39.59;101473.44;12898941;23;20187;-62
2023/02/28 11:58:41;;;;;;;4.00;2.72;;;;;;;7.44;39.47;101479.38;12899478;23;20076;-62
2023/02/28 12:20:40;;;;;;;5.15;3.22;;;;;;;7.81;39.23;101462.91;12800147;22;20108;-62
2023/02/28 13:36:22;;;;;;;4.07;2.92;;;;;;;9.90;35.74;101417.38;12892808;22;20019;-63
2023/02/28 13:41:36;;;;;;;5.25;2.78;;;;;;;10.26;34.89;101422.06;12966356;22;20012;-63
2023/02/28 13:46:47;;;;;;;6.03;3.53;;;;;;;10.37;34.74;101419.25;12966596;22;20024;-62
2023/02/28 13:51:50;;;;;;;3.97;3.03;;;;;;;10.58;34.50;101416.28;12938820;22;20004;-64
2023/02/28 13:57:01;;;;;;;5.88;3.10;;;;;;;10.82;34.22;101407.69;12950886;22;20012;-63
2023/02/28 14:02:40;;;;;;;4.47;3.08;;;;;;;11.06;33.93;101408.94;12964528;22;20091;-62
2023/02/28 14:07:53;;;;;;;7.43;3.38;;;;;;;11.23;33.83;101399.16;12965453;22;20071;-63
2023/02/28 14:12:56;;;;;;;7.88;3.00;;;;;;;11.27;33.76;101401.38;12965316;22;20080;-64
2023/02/28 14:17:59;;;;;;;4.28;3.50;;;;;;;11.35;33.63;101395.22;12938284;22;20008;-62
2023/02/28 14:23:30;;;;;;;6.75;3.50;;;;;;;11.33;33.06;101391.84;12925379;23;20019;-62
2023/02/28 14:29:17;;;;;;;5.47;3.35;;;;;;;11.25;33.26;101392.59;12939839;22;20079;-62
2023/02/28 14:34:18;;;;;;;5.95;4.35;;;;;;;11.30;33.65;101387.63;12961744;22;20038;-62
2023/02/28 14:39:23;;;;;;;5.68;3.72;;;;;;;11.41;32.97;101380.31;12932791;22;20052;-60
2023/02/28 14:44:27;;;;;;;6.35;4.35;;;;;;;11.47;33.27;101380.53;12937803;22;20032;-62
2023/02/28 14:49:45;;;;;;;9.50;4.10;;;;;;;11.38;33.02;101377.94;12961345;22;20011;-62
2023/02/28 14:54:51;;;;;;;;;;;;;;;11.25;33.62;101379.16;12959893;22;20042;-60
2023/02/28 15:00:15;;;;;;;4.93;3.42;;;;;;;11.17;33.58;101378.25;12959947;22;19910;-61
2023/02/28 15:05:26;;;;;;;6.18;3.35;;;;;;;11.28;33.67;101375.31;12959293;22;20028;-62
2023/02/28 15:10:28;;;;;;;5.70;4.25;;;;;;;11.65;33.62;101376.94;12956124;22;20008;-61
2023/02/28 15:15:41;;;;;;;10.95;4.07;;;;;;;12.18;32.51;101373.25;12960083;22;20062;-61
2023/02/28 15:21:10;;;;;;;6.10;3.58;;;;;;;12.15;32.87;101372.75;12968014;22;20012;-61
2023/02/28 15:26:30;;;;;;;4.72;3.22;;;;;;;11.75;32.64;101380.41;12959748;22;20008;-60
2023/02/28 15:31:35;;;;;;;5.28;3.10;;;;;;;11.57;32.69;101380.44;12958768;22;20008;-60
2023/02/28 15:36:56;;;;;;;4.47;3.15;;;;;;;11.45;32.79;101374.47;12944593;22;20044;-59
2023/02/28 15:42:12;;;;;;;4.65;3.45;;;;;;;11.02;33.69;101383.31;12937289;23;20361;-59
2023/02/28 15:47:22;;;;;;;5.47;3.60;;;;;;;11.06;33.41;101376.66;12931168;23;20028;-59
2023/02/28 15:52:45;;;;;;;5.53;3.60;;;;;;;11.04;33.37;101373.28;12920884;23;20020;-59
2023/02/28 15:57:52;;;;;;;6.07;3.65;;;;;;;10.59;33.59;101384.91;12916408;23;20463;-59
2023/02/28 16:02:54;;;;;;;4.47;3.60;;;;;;;10.22;34.02;101383.91;12897005;23;20028;-59
2023/02/28 16:07:57;;;;;;;6.90;3.78;;;;;;;10.02;33.98;101383.13;12936144;22;20088;-60
2023/02/28 16:13:01;;;;;;;4.72;4.00;;;;;;;9.72;34.30;101390.44;12952475;22;20079;-60
2023/02/28 16:18:02;;;;;;;7.40;4.20;;;;;;;9.45;34.65;101385.81;12963237;23;20063;-61
2023/02/28 16:23:04;;;;;;;7.70;3.60;;;;;;;9.20;34.92;101384.56;12952965;22;20008;-60
2023/02/28 16:28:30;;;;;;;5.68;3.92;;;;;;;8.94;35.31;101389.63;12946192;23;20031;-60
2023/02/28 16:33:34;;;;;;;5.10;3.90;;;;;;;8.66;35.83;101407.34;12956567;22;20050;-61
2023/02/28 16:38:36;;;;;;;8.00;4.25;;;;;;;8.44;35.71;101411.94;12960776;22;20046;-61
2023/02/28 16:43:37;;;;;;;5.22;3.47;;;;;;;8.23;36.74;101417.31;12961143;22;20030;-61
2023/02/28 16:48:40;;;;;;;7.82;4.53;;;;;;;8.03;36.92;101415.53;12960632;22;20016;-61
2023/02/28 16:53:43;;;;;;;8.05;4.20;;;;;;;7.83;37.02;101431.50;12962299;22;20047;-61
2023/02/28 16:58:44;;;;;;;8.27;4.35;;;;;;;7.63;37.89;101433.19;12960432;22;20024;-60
2023/02/28 17:03:46;;;;;;;8.45;4.65;;;;;;;7.48;38.32;101434.47;12957698;22;20012;-61
2023/02/28 17:08:49;;;;;;;8.93;4.47;;;;;;;7.20;38.51;101444.81;12956766;23;20020;-62
2023/02/28 17:13:50;;;;;;;7.50;5.18;;;;;;;6.90;38.89;101451.69;12948032;23;20035;-61
2023/02/28 17:18:58;;;;;;;7.85;3.65;;;;;;;6.73;38.83;101452.22;12950867;23;20008;-62
2023/02/28 17:24:00;;;;;;;6.45;4.13;;;;;;;6.52;39.26;101457.47;12952558;23;20023;-60
2023/02/28 17:29:01;;;;;;;9.60;4.50;;;;;;;6.29;39.47;101467.31;12956350;23;20071;-62
2023/02/28 17:34:03;;;;;;;5.82;4.10;;;;;;;6.17;40.16;101471.78;12953005;23;20020;-60
2023/02/28 17:39:10;;;;;;;9.93;3.78;;;;;;;6.04;40.36;101468.34;12953157;23;20000;-62
2023/02/28 17:44:13;;;;;;;5.95;3.50;;;;;;;5.90;40.82;101472.06;12958970;23;20088;-62
2023/02/28 17:49:15;;;;;;;7.70;4.13;;;;;;;5.80;40.38;101482.56;12929575;23;20399;-60
2023/02/28 17:54:17;;;;;;;7.78;4.30;;;;;;;5.63;40.89;101491.00;12912503;23;20016;-61
2023/02/28 17:59:19;;;;;;;8.73;4.18;;;;;;;5.48;41.11;101498.34;12910091;22;20016;-61
2023/02/28 18:04:20;;;;;;;10.63;4.70;;;;;;;5.33;41.37;101506.53;12906147;23;20089;-61
2023/02/28 18:09:22;;;;;;;8.68;4.60;;;;;;;5.22;42.04;101506.47;12908003;23;20024;-61
2023/02/28 18:14:25;;;;;;;7.97;4.57;;;;;;;5.02;42.27;101502.59;12914523;23;20019;-61
2023/02/28 18:19:26;;;;;;;11.13;4.55;;;;;;;4.91;42.63;101507.84;12947910;22;20070;-61
2023/02/28 18:24:28;;;;;;;7.25;4.38;;;;;;;4.79;43.18;101514.91;12909498;23;20051;-60
2023/02/28 18:29:30;;;;;;;7.32;4.30;;;;;;;4.66;43.80;101511.41;12907427;23;20322;-61
2023/02/28 18:34:31;;;;;;;8.68;4.75;;;;;;;4.63;43.64;101516.97;12907209;23;20016;-61
2023/02/28 18:39:33;;;;;;;8.18;4.65;;;;;;;4.54;44.09;101519.31;12905666;23;20401;-61
2023/02/28 18:44:36;;;;;;;7.97;5.15;;;;;;;4.47;44.35;101515.38;12907550;23;20230;-63
2023/02/28 18:49:37;;;;;;;8.82;4.82;;;;;;;4.34;44.56;101512.72;12943401;23;20027;-62
2023/02/28 18:54:39;;;;;;;7.47;4.68;;;;;;;4.26;44.94;101523.03;12936631;23;20420;-65
2023/02/28 18:59:40;;;;;;;10.38;5.85;;;;;;;4.22;45.13;101518.03;12948291;22;20043;-64
2023/02/28 19:04:42;;;;;;;9.32;4.82;;;;;;;4.07;45.23;101517.25;12942555;23;20054;-64
2023/02/28 19:09:43;;;;;;;7.00;4.30;;;;;;;3.97;45.98;101515.25;12948518;23;20024;-62
2023/02/28 19:14:45;;;;;;;9.27;4.95;;;;;;;3.95;46.27;101522.50;12938976;23;20711;-61
2023/02/28 19:19:47;;;;;;;9.23;4.43;;;;;;;3.89;46.27;101519.38;12936929;23;20021;-61
2023/02/28 19:24:50;;;;;;;9.00;5.53;;;;;;;3.87;46.51;101519.50;12928812;23;20243;-60
2023/02/28 19:29:52;;;;;;;7.40;4.72;;;;;;;3.90;46.66;101516.63;12933700;23;20799;-62
2023/02/28 19:34:53;;;;;;;7.20;4.28;;;;;;;3.88;46.78;101521.19;12934796;23;20054;-63
2023/02/28 19:39:55;;;;;;;12.30;5.28;;;;;;;3.86;46.62;101516.94;12933137;23;20063;-61
2023/02/28 19:44:57;;;;;;;8.80;5.40;;;;;;;3.85;46.47;101520.53;12922651;23;20055;-66
2023/02/28 19:49:59;;;;;;;7.70;4.72;;;;;;;3.81;46.76;101519.03;12888584;23;20352;-66
2023/02/28 19:55:00;;;;;;;9.10;5.88;;;;;;;3.72;47.03;101528.50;12887951;23;20040;-65
2023/02/28 20:00:02;;;;;;;9.95;6.07;;;;;;;3.65;47.59;101530.69;12892913;22;20055;-64
2023/02/28 20:05:05;;;;;;;12.00;6.38;;;;;;;3.63;47.69;101534.41;12893533;23;20028;-66
2023/02/28 20:10:07;;;;;;;9.30;5.68;;;;;;;3.54;47.92;101523.44;12867296;23;20028;-66
2023/02/28 20:15:08;;;;;;;13.52;7.13;;;;;;;3.47;48.29;101530.09;12869404;23;20024;-65
2023/02/28 20:20:10;;;;;;;11.23;5.93;;;;;;;3.49;47.66;101522.88;12893565;23;20016;-65
2023/02/28 20:25:11;;;;;;;13.80;5.90;;;;;;;3.45;48.43;101520.53;12897016;23;20020;-66
2023/02/28 20:30:13;;;;;;;12.57;6.50;;;;;;;3.44;48.25;101516.19;12896260;23;20016;-65
2023/02/28 20:35:14;;;;;;;11.10;5.80;;;;;;;3.44;48.32;101509.06;12897219;23;20070;-65
2023/02/28 20:40:17;;;;;;;12.73;6.15;;;;;;;3.45;48.59;101517.88;12895271;23;20039;-64
2023/02/28 20:45:18;;;;;;;18.25;6.50;;;;;;;3.45;48.27;101515.22;12894309;23;20035;-66
2023/02/28 20:50:20;;;;;;;11.45;5.53;;;;;;;3.43;48.45;101517.13;12896354;23;20032;-66
2023/02/28 20:55:22;;;;;;;10.18;5.60;;;;;;;3.34;49.00;101513.28;12898056;23;20055;-67
2023/02/28 21:00:25;;;;;;;12.05;6.22;;;;;;;3.34;49.03;101516.78;12897657;22;20486;-66
2023/02/28 21:05:26;;;;;;;13.40;6.60;;;;;;;3.33;48.35;101514.22;12899406;23;20725;-66
2023/02/28 21:10:27;;;;;;;9.77;6.07;;;;;;;3.31;49.42;101501.03;12896011;23;20028;-65
2023/02/28 21:15:29;;;;;;;12.70;7.00;;;;;;;3.27;49.46;101502.19;12896506;23;20016;-64
2023/02/28 21:20:30;;;;;;;10.73;6.47;;;;;;;3.26;49.49;101496.97;12903640;23;20117;-65
2023/02/28 21:25:32;;;;;;;11.15;6.35;;;;;;;3.25;49.30;101500.59;12902159;23;20024;-64
2023/02/28 21:30:35;;;;;;;11.57;6.85;;;;;;;3.27;49.63;101514.63;12902937;23;20019;-65
2023/02/28 21:35:37;;;;;;;10.48;5.82;;;;;;;3.22;49.27;101501.66;12904370;23;20032;-65
2023/02/28 21:40:38;;;;;;;10.07;6.00;;;;;;;3.18;49.32;101502.81;12902647;23;20020;-65
2023/02/28 21:45:39;;;;;;;9.65;5.45;;;;;;;3.16;49.92;101505.56;12903200;23;20047;-65
2023/02/28 21:50:41;;;;;;;9.93;6.25;;;;;;;3.17;49.53;101504.59;12875930;23;20023;-64
2023/02/28 21:55:42;;;;;;;14.73;6.43;;;;;;;3.10;49.71;101507.72;12923475;23;20043;-61
2023/02/28 22:00:45;;;;;;;10.88;6.18;;;;;;;3.13;49.88;101503.09;12930833;22;20020;-61
2023/02/28 22:05:46;;;;;;;12.80;6.78;;;;;;;3.08;49.71;101509.63;12911921;23;20321;-61
2023/02/28 22:10:47;;;;;;;14.35;8.10;;;;;;;3.06;49.94;101509.75;12937647;23;20031;-61
2023/02/28 22:15:49;;;;;;;14.90;7.07;;;;;;;3.02;50.04;101518.88;12938992;23;20027;-61
2023/02/28 22:20:54;;;;;;;14.52;6.95;;;;;;;2.94;50.49;101513.19;12936662;23;20043;-61
2023/02/28 22:25:59;;;;;;;14.95;6.90;;;;;;;2.92;50.78;101520.41;12935157;23;20054;-61
2023/02/28 22:31:11;;;;;;;13.35;7.10;;;;;;;2.93;50.64;101515.00;12934508;23;20024;-62
2023/02/28 22:36:15;;;;;;;14.43;7.03;;;;;;;2.95;50.63;101514.91;12934804;23;20028;-62
2023/02/28 22:41:22;;;;;;;13.43;7.15;;;;;;;2.93;51.21;101522.97;12935868;23;20020;-62
2023/02/28 22:46:24;;;;;;;15.57;7.72;;;;;;;2.93;50.74;101522.97;12935465;23;20019;-61
2023/02/28 22:51:27;;;;;;;12.40;6.13;;;;;;;2.97;50.79;101518.31;12932332;23;20031;-61
2023/02/28 22:56:29;;;;;;;12.93;7.22;;;;;;;2.94;50.61;101524.69;12942791;23;20062;-63
2023/02/28 23:01:33;;;;;;;14.73;7.40;;;;;;;2.93;50.99;101528.28;12928182;22;20070;-64
2023/02/28 23:06:40;;;;;;;13.65;7.07;;;;;;;2.83;50.98;101536.94;12954832;23;20147;-62
2023/02/28 23:11:44;;;;;;;13.82;6.93;;;;;;;2.82;51.09;101537.88;12952669;23;20035;-63
2023/02/28 23:16:55;;;;;;;11.30;6.72;;;;;;;2.78;51.62;101530.09;12954449;23;20024;-63
2023/02/28 23:21:58;;;;;;;14.35;7.00;;;;;;;2.80;51.83;101529.13;12953273;23;20159;-64
2023/02/28 23:27:03;;;;;;;10.10;5.90;;;;;;;2.82;51.62;101527.25;12956097;23;20083;-64
2023/02/28 23:32:05;;;;;;;12.80;7.70;;;;;;;2.84;51.13;101531.50;12937192;23;20161;-62
2023/02/28 23:37:06;;;;;;;13.93;7.38;;;;;;;2.83;51.02;101524.50;12930183;23;20059;-62
2023/02/28 23:42:07;;;;;;;13.55;6.78;;;;;;;2.78;51.31;101523.91;12930516;23;20082;-59
2023/02/28 23:47:11;;;;;;;12.32;7.22;;;;;;;2.76;51.80;101524.03;12933022;23;20087;-61
2023/02/28 23:52:13;;;;;;;14.45;6.85;;;;;;;2.77;51.51;101528.38;12933332;23;20024;-63
2023/02/28 23:57:15;;;;;;;13.48;7.18;;;;;;;2.76;51.68;101521.38;12932350;23;20110;-63
